Flight Track Log - Related Links

Times and Time Zones

All times are in EDT time to prevent confusion due to time zone crossing. See the SWA149 flight status page for this flight to view local times or setup timezone preferences in your user account.

Time Position Orientation Groundspeed Altitude Reporting Facility
EDT Latitude Longitude Course Direction KTS MPH feet Rate Location/Type
Wed 07:02:21 PM 33.5356 -86.8050 237° Southwest 175 201 2,900  Level Atlanta Center
Wed 07:03:21 PM 33.4928 -86.8561 225° Southwest 240 276 4,800 2,208 Climbing Atlanta Center
Wed 07:04:07 PM 33.4494 -86.8372 160° South 283 326 6,800 3,453 Climbing Atlanta Center
Wed 07:05:07 PM 33.3708 -86.8022 160° South 302 348 10,900 3,950 Climbing Atlanta Center
Wed 07:06:07 PM 33.2739 -86.7569 159° South 326 375 14,700 3,400 Climbing Atlanta Center
Wed 07:07:07 PM 33.1897 -86.6825 143° Southeast 337 388 17,700 3,150 Climbing Atlanta Center
Wed 07:08:07 PM 33.1039 -86.6031 142° Southeast 368 423 21,000 2,650 Climbing Atlanta Center
Wed 07:09:07 PM 33.0117 -86.5161 142° Southeast 394 453 23,000 1,900 Climbing Atlanta Center
Wed 07:10:07 PM 32.9194 -86.4317 142° Southeast 415 478 24,800 2,050 Climbing Atlanta Center
Wed 07:11:07 PM 32.8211 -86.3375 141° Southeast 435 501 27,100 2,250 Climbing Atlanta Center
Wed 07:12:07 PM 32.7203 -86.2536 145° Southeast 449 517 29,300 2,150 Climbing Atlanta Center
Wed 07:13:07 PM 32.6156 -86.1597 143° Southeast 455 524 31,400 2,150 Climbing Atlanta Center
Wed 07:14:07 PM 32.5106 -86.0636 142° Southeast 467 537 33,600 2,150 Climbing Atlanta Center
Wed 07:15:07 PM 32.4139 -85.9850 146° Southeast 472 543 35,700 2,000 Climbing Atlanta Center
Wed 07:16:07 PM 32.3067 -85.8942 144° Southeast 472 543 37,600 1,750 Climbing Atlanta Center
Wed 07:17:07 PM 32.2078 -85.8061 143° Southeast 465 535 39,200 1,229 Climbing Atlanta Center
Wed 07:18:53 PM 32.0303 -85.6444 142° Southeast 456 525 41,000 651 Climbing Jacksonville Center
Wed 07:19:53 PM 31.9319 -85.5583 143° Southeast 451 519 41,000  Level Jacksonville Center
Wed 07:20:53 PM 31.8292 -85.4697 144° Southeast 451 519 41,000  Level Jacksonville Center
Wed 07:21:53 PM 31.7286 -85.3814 143° Southeast 451 519 41,000  Level Jacksonville Center
Wed 07:22:53 PM 31.6261 -85.2933 144° Southeast 451 519 41,000  Level Jacksonville Center
Wed 07:23:53 PM 31.5233 -85.2056 144° Southeast 451 519 41,000  Level Jacksonville Center
Wed 07:24:53 PM 31.4203 -85.1200 145° Southeast 451 519 41,000  Level Jacksonville Center
Wed 07:25:53 PM 31.3153 -85.0397 147° Southeast 456 525 41,000  Level Jacksonville Center
Wed 07:26:53 PM 31.2081 -84.9597 147° Southeast 461 531 41,000  Level Jacksonville Center
Wed 07:27:53 PM 31.0986 -84.8794 148° Southeast 461 531 41,000  Level Jacksonville Center
Wed 07:28:53 PM 30.9914 -84.7972 147° Southeast 456 525 41,000  Level Jacksonville Center
Wed 07:29:53 PM 30.8861 -84.7203 148° Southeast 456 525 41,000  Level Jacksonville Center
Wed 07:30:53 PM 30.7703 -84.6333 147° Southeast 451 519 41,000  Level Jacksonville Center
Wed 07:31:53 PM 30.6628 -84.5542 148° Southeast 451 519 41,000  Level Jacksonville Center
Wed 07:32:53 PM 30.5636 -84.4847 149° Southeast 451 519 41,000  Level Jacksonville Center
Wed 07:33:53 PM 30.4475 -84.3986 147° Southeast 451 519 41,000  Level Jacksonville Center
Wed 07:34:53 PM 30.3400 -84.3175 147° Southeast 451 519 41,000  Level Jacksonville Center
Wed 07:35:53 PM 30.2303 -84.2389 148° Southeast 456 525 41,000  Level Jacksonville Center
Wed 07:36:53 PM 30.1225 -84.1606 148° Southeast 456 525 41,000  Level Jacksonville Center
Wed 07:37:53 PM 30.0147 -84.0825 148° Southeast 456 525 41,000  Level Jacksonville Center
Wed 07:38:53 PM 29.9047 -84.0019 148° Southeast 456 525 41,000  Level Jacksonville Center
Wed 07:39:53 PM 29.7967 -83.9242 148° Southeast 462 532 41,000 -950 Level Jacksonville Center
Wed 07:40:53 PM 29.6867 -83.8464 148° Southeast 462 532 39,100 -2,250 Descending Jacksonville Center
Wed 07:41:53 PM 29.5786 -83.7689 148° Southeast 462 532 36,500 -2,950 Descending Jacksonville Center
Wed 07:42:53 PM 29.4686 -83.6892 148° Southeast 462 532 33,200 -3,150 Descending Jacksonville Center
Wed 07:43:53 PM 29.3564 -83.6097 148° Southeast 469 540 30,200 -2,800 Descending Jacksonville Center
Wed 07:44:53 PM 29.2483 -83.5306 147° Southeast 469 540 27,600 -1,650 Descending Jacksonville Center
Wed 07:45:53 PM 29.1422 -83.4608 150° Southeast 459 528 26,900 -850 Descending Jacksonville Center
Wed 07:46:53 PM 29.0317 -83.3914 151° Southeast 447 514 25,900 -1,150 Descending Jacksonville Center
Wed 07:47:53 PM 28.9275 -83.3244 151° Southeast 442 509 24,600 -1,900 Descending Jacksonville Center
Wed 07:48:53 PM 28.8236 -83.2575 151° Southeast 435 501 22,100 -2,450 Descending Jacksonville Center
Wed 07:49:53 PM 28.7256 -83.1956 151° Southeast 427 491 19,700 -2,400 Descending Jacksonville Center
Wed 07:50:53 PM 28.6256 -83.1339 152° Southeast 410 472 17,300 -2,400 Descending Jacksonville Center
Wed 07:52:18 PM 28.5000 -83.0500 150° Southeast 381 438 13,900 -1,903 Descending Tampa TRACON
Wed 07:53:18 PM 28.4000 -83.0000 156° South 348 400 12,700 -1,545 Descending Tampa TRACON
Wed 07:54:30 PM 28.3000 -82.9333 150° Southeast 324 373 10,500 -1,476 Descending Tampa TRACON
Wed 07:55:24 PM 28.2667 -82.8667 120° Southeast 301 346 9,600 -1,421 Descending Tampa TRACON
Wed 07:56:24 PM 28.2833 -82.7833 77° East 274 315 7,800 -1,850 Descending Tampa TRACON
Wed 07:57:24 PM 28.2500 -82.7000 114° Southeast 276 318 5,900 -1,700 Descending Tampa TRACON
Wed 07:58:24 PM 28.2000 -82.6333 130° Southeast 266 306 4,400 -1,400 Descending Tampa TRACON
Wed 07:59:24 PM 28.1667 -82.5667 120° Southeast 237 273 3,100 -905 Descending Tampa TRACON
Wed 08:00:30 PM 28.1167 -82.5333 150° Southeast 186 214 2,500 -700 Descending Tampa TRACON
Wed 08:01:24 PM 28.0667 -82.5333 180° South 177 204 1,700 -850 Descending Tampa TRACON
Wed 08:02:30 PM 28.0167 -82.5333 180° South 136 157 800 -818 Descending Tampa TRACON

Login

Don't have an account? Register now (free) for customized features, flight alerts, and more!